Terminal Aerodrome Forecast
Issued by NWS Binghamton, NY

Home | Current Version | Previous Version | Text Only | Print | Product List | Glossary On
Versions: 1 2 3 4 5 6 7 8 9 10 11 12 13 14 15 16 17 18 19
000
FTUS41 KBGM 282248 AAC
TAFBGM
TAF AMD
KBGM 282248Z 2823/2918 23006KT P6SM SCT035 BKN060
     FM290600 30006KT P6SM BKN015
     FM291000 31006KT 4SM BR OVC008
     FM291400 33007KT P6SM BKN015
     FM291600 34007KT P6SM SCT020 BKN035=

USA.gov is the U.S. government's official web portal to all federal, state and local government web resources and services.